createdAt,value
2023-01-12T00:01:27.811Z,99028.63
2023-01-12T00:03:54.931Z,99026.33
2023-01-12T00:06:22.748Z,99028.46
2023-01-12T00:08:50.992Z,99031.11
2023-01-12T00:11:18.617Z,99031.51
2023-01-12T00:13:45.363Z,99033.59
2023-01-12T00:16:38.984Z,99038.89
2023-01-12T00:19:13.003Z,99045.58
2023-01-12T00:21:47.924Z,99050.33
2023-01-12T00:24:16.000Z,99051.92
2023-01-12T00:26:42.850Z,99052.09
2023-01-12T00:29:09.634Z,99055.95
2023-01-12T00:31:36.222Z,99057.00
2023-01-12T00:34:02.709Z,99060.69
2023-01-12T00:36:29.301Z,99065.74
2023-01-12T00:38:55.750Z,99066.27
2023-01-12T00:41:40.838Z,99072.35
2023-01-12T00:44:26.016Z,99074.92
2023-01-12T00:46:52.533Z,99076.30
2023-01-12T00:49:19.169Z,99075.43
2023-01-12T00:51:45.674Z,99074.38
2023-01-12T00:54:12.203Z,99075.95
2023-01-12T00:56:38.901Z,99081.70
2023-01-12T00:59:05.511Z,99091.48
2023-01-12T01:01:33.211Z,99085.77
2023-01-12T01:04:00.849Z,99084.62
2023-01-12T01:06:27.517Z,99085.95
2023-01-12T01:08:53.980Z,99088.48
2023-01-12T01:11:20.458Z,99085.04
2023-01-12T01:13:48.380Z,99089.80
2023-01-12T01:16:16.783Z,99088.34
2023-01-12T01:18:43.563Z,99094.41
2023-01-12T01:21:13.086Z,99098.98
2023-01-12T01:23:41.110Z,99099.34
2023-01-12T01:26:14.658Z,99098.15
2023-01-12T01:28:42.249Z,99102.36
2023-01-12T01:31:20.956Z,99101.66
2023-01-12T01:33:48.852Z,99102.68
2023-01-12T01:36:16.029Z,99098.27
2023-01-12T01:38:45.342Z,99097.66
2023-01-12T01:41:24.886Z,99099.20
2023-01-12T01:43:59.847Z,99101.60
2023-01-12T01:46:49.887Z,99102.36
2023-01-12T01:49:31.492Z,99093.84
2023-01-12T01:52:08.941Z,99092.88
2023-01-12T01:54:41.079Z,99100.09
2023-01-12T01:57:10.741Z,99093.70
2023-01-12T01:59:46.290Z,99095.01
2023-01-12T02:02:13.757Z,99090.77
2023-01-12T02:04:40.579Z,99092.09
2023-01-12T02:07:08.135Z,99097.41
2023-01-12T02:09:35.426Z,99100.52
2023-01-12T02:12:21.388Z,99108.23
2023-01-12T02:15:09.662Z,99115.04
2023-01-12T02:17:57.106Z,99114.34
2023-01-12T02:20:47.890Z,99108.48
2023-01-12T02:23:31.996Z,99101.07
2023-01-12T02:26:29.362Z,99105.02
2023-01-12T02:28:58.578Z,99108.44
2023-01-12T02:31:53.895Z,99111.66
2023-01-12T02:34:41.981Z,99119.54
2023-01-12T02:37:32.155Z,99116.75
2023-01-12T02:40:24.681Z,99111.64
2023-01-12T02:43:07.119Z,99111.95
2023-01-12T02:45:42.365Z,99108.42
2023-01-12T02:48:14.831Z,99106.20
2023-01-12T02:50:59.676Z,99103.01
2023-01-12T02:53:42.537Z,99106.62
2023-01-12T02:56:10.825Z,99112.66
2023-01-12T02:58:43.673Z,99116.42
2023-01-12T03:01:13.576Z,99112.04
2023-01-12T03:03:41.974Z,99111.45
2023-01-12T03:06:09.309Z,99103.84
2023-01-12T03:08:39.145Z,99098.45
2023-01-12T03:11:13.340Z,99093.81
2023-01-12T03:13:53.801Z,99095.29
2023-01-12T03:16:24.773Z,99100.42
2023-01-12T03:19:15.635Z,99102.98
2023-01-12T03:21:48.688Z,99106.56
2023-01-12T03:24:21.188Z,99111.36
2023-01-12T03:26:51.485Z,99113.54
2023-01-12T03:29:43.926Z,99113.63
2023-01-12T03:32:10.552Z,99109.75
2023-01-12T03:34:38.177Z,99107.10
2023-01-12T03:37:16.748Z,99103.38
2023-01-12T03:39:49.110Z,99100.76
2023-01-12T03:42:32.268Z,99095.02
2023-01-12T03:45:17.212Z,99100.24
2023-01-12T03:47:44.236Z,99095.88
2023-01-12T03:50:21.522Z,99096.40
2023-01-12T03:52:49.127Z,99095.67
2023-01-12T03:55:19.111Z,99093.55
2023-01-12T03:57:46.844Z,99087.90
2023-01-12T04:00:15.381Z,99086.13
2023-01-12T04:02:45.211Z,99088.32
2023-01-12T04:05:13.758Z,99084.40
2023-01-12T04:07:40.459Z,99078.05
2023-01-12T04:10:07.627Z,99073.64
2023-01-12T04:12:34.111Z,99072.73
2023-01-12T04:15:00.595Z,99080.86
2023-01-12T04:17:28.485Z,99083.90
2023-01-12T04:19:55.005Z,99093.75
2023-01-12T04:22:40.066Z,99102.21
2023-01-12T04:25:09.373Z,99110.48
2023-01-12T04:27:40.238Z,99111.07
2023-01-12T04:30:07.453Z,99106.23
2023-01-12T04:32:33.944Z,99098.61
2023-01-12T04:35:00.421Z,99091.55
2023-01-12T04:37:26.931Z,99091.77
2023-01-12T04:39:53.611Z,99098.28
2023-01-12T04:42:38.620Z,99102.17
2023-01-12T04:45:05.625Z,99101.89
2023-01-12T04:47:33.070Z,99096.70
2023-01-12T04:49:59.515Z,99097.40
2023-01-12T04:52:25.992Z,99097.58
2023-01-12T04:54:52.726Z,99097.40
2023-01-12T05:11:29.079Z,99066.81
2023-01-12T05:13:57.311Z,99063.01
2023-01-12T05:16:26.630Z,99061.85
2023-01-12T05:18:54.823Z,99062.60
2023-01-12T05:21:24.277Z,99067.20
2023-01-12T05:23:53.218Z,99068.67
2023-01-12T05:26:21.576Z,99068.73
2023-01-12T05:28:51.121Z,99072.58
2023-01-12T05:31:22.510Z,99070.30
2023-01-12T05:33:50.580Z,99070.13
2023-01-12T05:36:18.570Z,99067.85
2023-01-12T05:38:46.648Z,99067.85
2023-01-12T05:41:14.984Z,99061.41
2023-01-12T05:43:53.095Z,99056.38
2023-01-12T05:46:26.695Z,99054.48
2023-01-12T05:48:56.355Z,99055.91
2023-01-12T05:51:26.537Z,99054.39
2023-01-12T05:53:55.203Z,99052.89
2023-01-12T05:56:28.522Z,99054.34
2023-01-12T05:58:59.377Z,99055.43
2023-01-12T06:01:29.490Z,99060.20
2023-01-12T06:04:01.905Z,99062.88
2023-01-12T06:06:31.892Z,99058.25
2023-01-12T06:09:01.529Z,99061.59
2023-01-12T06:11:48.955Z,99068.92
2023-01-12T06:14:17.064Z,99069.44
2023-01-12T06:16:45.511Z,99069.60
2023-01-12T06:19:13.709Z,99069.23
2023-01-12T06:21:41.787Z,99062.79
2023-01-12T06:24:09.968Z,99061.38
2023-01-12T06:26:38.260Z,99058.95
2023-01-12T06:29:07.345Z,99056.36
2023-01-12T06:31:36.584Z,99057.80
2023-01-12T06:34:04.950Z,99056.97
2023-01-12T06:36:32.881Z,99054.23
2023-01-12T06:39:00.777Z,99054.61
2023-01-12T06:41:47.329Z,99053.71
2023-01-12T06:44:15.171Z,99047.65
2023-01-12T06:46:43.068Z,99047.45
2023-01-12T06:49:11.059Z,99044.80
2023-01-12T06:51:39.548Z,99042.13
2023-01-12T06:54:07.548Z,99048.00
2023-01-12T06:56:35.441Z,99051.23
2023-01-12T06:59:03.459Z,99053.17
2023-01-12T07:01:31.692Z,99051.08
2023-01-12T07:03:59.568Z,99045.67
2023-01-12T07:06:27.493Z,99046.80
2023-01-12T07:08:55.358Z,99047.77
2023-01-12T07:11:23.330Z,99043.71
2023-01-12T07:13:51.171Z,99044.02
2023-01-12T07:16:19.378Z,99046.95
2023-01-12T07:18:48.122Z,99042.71
2023-01-12T07:21:19.823Z,99045.46
2023-01-12T07:23:47.929Z,99045.40
2023-01-12T07:26:15.804Z,99049.19
2023-01-12T07:28:43.646Z,99046.67
2023-01-12T07:31:12.374Z,99044.63
2023-01-12T07:33:40.385Z,99047.19
2023-01-12T07:36:08.408Z,99047.10
2023-01-12T07:38:37.352Z,99042.45
2023-01-12T07:41:05.376Z,99036.38
2023-01-12T07:43:33.714Z,99030.65
2023-01-12T07:46:02.080Z,99025.75
2023-01-12T07:48:30.894Z,99023.62
2023-01-12T07:50:59.061Z,99023.92
2023-01-12T07:53:26.990Z,99022.49
2023-01-12T07:55:55.049Z,99031.01
2023-01-12T07:58:23.314Z,99033.21
2023-01-12T08:00:51.151Z,99036.71
2023-01-12T08:03:19.016Z,99036.64
2023-01-12T08:05:46.881Z,99040.52
2023-01-12T08:08:14.728Z,99033.89
2023-01-12T08:10:43.694Z,99030.10
2023-01-12T08:13:11.594Z,99032.77
2023-01-12T08:15:44.098Z,99033.63
2023-01-12T08:18:23.021Z,99041.63
2023-01-12T08:20:52.760Z,99041.09
2023-01-12T08:23:27.805Z,99040.36
2023-01-12T08:25:59.735Z,99043.14
2023-01-12T08:28:43.807Z,99037.14
2023-01-12T08:31:15.252Z,99032.98
2023-01-12T08:33:43.689Z,99029.75
2023-01-12T08:36:15.734Z,99025.91
2023-01-12T08:38:43.788Z,99022.42
2023-01-12T08:41:30.112Z,99016.04
2023-01-12T08:44:07.098Z,99017.86
2023-01-12T08:46:45.345Z,99022.64
2023-01-12T08:49:16.653Z,99027.05
2023-01-12T08:51:45.890Z,99029.90
2023-01-12T08:54:16.735Z,99028.05
2023-01-12T08:56:45.295Z,99028.75
2023-01-12T08:59:13.356Z,99029.17
2023-01-12T09:01:41.346Z,99034.09
2023-01-12T09:04:09.340Z,99034.42
2023-01-12T09:06:40.256Z,99036.48
2023-01-12T09:09:10.923Z,99040.50
2023-01-12T09:11:42.618Z,99042.23
2023-01-12T09:14:12.033Z,99045.83
2023-01-12T09:16:40.409Z,99042.23
2023-01-12T09:19:09.332Z,99037.39
2023-01-12T09:21:39.903Z,99038.08
2023-01-12T09:24:08.244Z,99037.50
2023-01-12T09:26:41.974Z,99030.84
2023-01-12T09:29:11.698Z,99030.29
2023-01-12T09:31:43.072Z,99031.46
2023-01-12T09:34:11.756Z,99030.06
2023-01-12T09:36:40.868Z,99027.33
2023-01-12T09:39:12.822Z,99026.30
2023-01-12T09:42:07.094Z,99026.48
2023-01-12T09:44:56.916Z,99021.02
2023-01-12T09:47:48.123Z,99017.12
2023-01-12T09:50:21.957Z,99013.70
2023-01-12T09:53:05.008Z,99016.97
2023-01-12T09:55:55.926Z,99018.82
2023-01-12T09:58:42.062Z,99021.04
2023-01-12T10:01:20.636Z,99018.41
2023-01-12T10:03:56.815Z,99017.33
2023-01-12T10:06:24.675Z,99018.69
2023-01-12T10:08:56.573Z,99009.48
2023-01-12T10:11:32.067Z,99003.36
2023-01-12T10:14:24.817Z,99002.63
2023-01-12T10:17:17.763Z,99003.33
2023-01-12T10:19:50.804Z,98993.98
2023-01-12T10:22:39.508Z,98988.52
2023-01-12T10:25:26.873Z,98984.81
2023-01-12T10:27:57.174Z,98971.73
2023-01-12T10:30:32.824Z,98970.89
2023-01-12T10:33:13.020Z,98967.30
2023-01-12T10:36:03.091Z,98959.38
2023-01-12T10:38:38.427Z,98952.91
2023-01-12T10:41:19.735Z,98953.69
2023-01-12T10:43:56.528Z,98950.09
2023-01-12T10:46:31.769Z,98944.88
2023-01-12T10:49:23.392Z,98940.39
2023-01-12T10:51:51.466Z,98941.65
2023-01-12T10:54:23.046Z,98938.12
2023-01-12T10:56:58.822Z,98926.15
2023-01-12T10:59:31.745Z,98916.91
2023-01-12T11:02:05.799Z,98914.45
2023-01-12T11:04:44.659Z,98904.31
2023-01-12T11:07:22.987Z,98889.84
2023-01-12T11:09:50.846Z,98886.20
2023-01-12T11:12:30.068Z,98877.36
2023-01-12T11:15:10.370Z,98878.17
2023-01-12T11:17:49.748Z,98867.04
2023-01-12T11:20:30.164Z,98862.19
2023-01-12T11:23:02.479Z,98868.05
2023-01-12T11:25:35.942Z,98860.83
2023-01-12T11:28:14.377Z,98862.00
2023-01-12T11:30:51.704Z,98858.80
2023-01-12T11:33:40.038Z,98853.66
2023-01-12T11:36:14.768Z,98850.73
2023-01-12T11:38:46.524Z,98840.59
2023-01-12T11:41:29.581Z,98847.67
2023-01-12T11:44:13.791Z,98850.48
2023-01-12T11:46:56.210Z,98844.28
2023-01-12T11:49:41.113Z,98849.09
2023-01-12T11:52:13.299Z,98851.16
2023-01-12T11:54:41.968Z,98842.64
2023-01-12T11:57:12.577Z,98841.44
2023-01-12T12:00:08.084Z,98830.71
2023-01-12T12:03:20.459Z,98820.34
2023-01-12T12:05:58.505Z,98800.89
2023-01-12T12:08:48.246Z,98801.61
2023-01-12T12:11:18.823Z,98809.33
2023-01-12T12:14:04.391Z,98805.10
2023-01-12T12:16:58.895Z,98803.02
2023-01-12T12:20:00.865Z,98797.08
2023-01-12T12:22:54.559Z,98805.86
2023-01-12T12:25:31.454Z,98812.16
2023-01-12T12:28:08.427Z,98812.70
2023-01-12T12:30:53.786Z,98809.44
2023-01-12T12:33:31.643Z,98802.79
2023-01-12T12:36:02.835Z,98803.21
2023-01-12T12:39:12.668Z,98797.06
2023-01-12T12:42:11.175Z,98793.27
2023-01-12T12:45:18.621Z,98784.88
2023-01-12T12:48:11.281Z,98777.70
2023-01-12T12:51:00.496Z,98775.01
2023-01-12T12:53:35.921Z,98768.38
2023-01-12T12:56:07.804Z,98767.88
2023-01-12T12:58:46.330Z,98762.97
2023-01-12T13:01:20.357Z,98766.39
2023-01-12T13:03:57.275Z,98762.69
2023-01-12T13:06:31.401Z,98766.11
2023-01-12T13:09:05.636Z,98760.66
2023-01-12T13:11:54.752Z,98755.13
2023-01-12T13:14:30.092Z,98754.89
2023-01-12T13:17:03.681Z,98760.08
2023-01-12T13:19:45.897Z,98761.19
2023-01-12T13:22:16.672Z,98755.33
2023-01-12T13:24:44.683Z,98750.79
2023-01-12T13:27:49.863Z,98750.34
2023-01-12T13:30:51.368Z,98740.51
2023-01-12T13:33:25.628Z,98737.49
2023-01-12T13:35:53.639Z,98734.45
2023-01-12T13:38:49.255Z,98726.34
2023-01-12T13:41:41.165Z,98723.52
2023-01-12T13:44:37.606Z,98724.76
2023-01-12T13:47:13.600Z,98731.74
2023-01-12T13:50:01.452Z,98738.92
2023-01-12T13:52:35.437Z,98740.98
2023-01-12T13:55:17.538Z,98745.73
2023-01-12T13:57:58.182Z,98750.15
2023-01-12T14:00:27.190Z,98751.27
2023-01-12T14:02:56.221Z,98751.89
2023-01-12T14:06:11.445Z,98749.96
2023-01-12T14:08:56.501Z,98747.63
2023-01-12T14:12:01.481Z,98742.20
2023-01-12T14:15:12.790Z,98743.54
2023-01-12T14:17:49.215Z,98749.39
2023-01-12T14:20:22.865Z,98742.73
2023-01-12T14:22:51.390Z,98743.47
2023-01-12T14:25:22.382Z,98738.71
2023-01-12T14:27:56.454Z,98739.41
2023-01-12T14:30:27.553Z,98738.33
2023-01-12T14:32:55.611Z,98740.95
2023-01-12T14:35:25.888Z,98743.67
2023-01-12T14:37:58.000Z,98741.40
2023-01-12T14:40:30.590Z,98739.41
2023-01-12T14:43:18.519Z,98741.81
2023-01-12T14:46:27.848Z,98740.68
2023-01-12T14:49:17.341Z,98744.91
2023-01-12T14:52:15.064Z,98744.23
2023-01-12T14:54:43.342Z,98750.75
2023-01-12T14:57:51.173Z,98747.58
2023-01-12T15:00:25.355Z,98749.83
2023-01-12T15:02:55.657Z,98751.71
2023-01-12T15:05:26.662Z,98753.48
2023-01-12T15:08:22.144Z,98749.86
2023-01-12T15:11:10.547Z,98748.45
2023-01-12T15:13:38.503Z,98748.94
2023-01-12T15:16:25.319Z,98749.94
2023-01-12T15:19:11.499Z,98748.66
2023-01-12T15:22:01.422Z,98744.79
2023-01-12T15:24:50.421Z,98739.91
2023-01-12T15:27:21.265Z,98735.36
2023-01-12T15:29:49.131Z,98735.08
2023-01-12T15:32:23.833Z,98734.33
2023-01-12T15:34:54.140Z,98731.89
2023-01-12T15:37:22.117Z,98727.40
2023-01-12T15:39:50.083Z,98731.52
2023-01-12T15:42:22.708Z,98729.86
2023-01-12T15:44:52.171Z,98733.52
2023-01-12T15:47:21.343Z,98729.46
2023-01-12T15:49:51.171Z,98732.00
2023-01-12T15:52:23.088Z,98725.23
2023-01-12T15:54:51.419Z,98727.22
2023-01-12T15:57:19.335Z,98731.34
2023-01-12T15:59:47.150Z,98732.08
2023-01-12T16:02:33.227Z,98729.82
2023-01-12T16:05:02.757Z,98731.08
2023-01-12T16:07:30.702Z,98723.73
2023-01-12T16:09:59.682Z,98727.81
2023-01-12T16:12:27.625Z,98725.81
2023-01-12T16:14:57.803Z,98721.55
2023-01-12T16:17:26.105Z,98723.58
2023-01-12T16:19:54.069Z,98726.78
2023-01-12T16:22:26.350Z,98723.36
2023-01-12T16:24:56.411Z,98725.64
2023-01-12T16:27:26.049Z,98728.32
2023-01-12T16:29:54.335Z,98723.52
2023-01-12T16:32:24.415Z,98721.98
2023-01-12T16:34:52.565Z,98720.48
2023-01-12T16:37:22.968Z,98715.80
2023-01-12T16:39:50.779Z,98715.83
2023-01-12T16:42:18.598Z,98714.67
2023-01-12T16:44:49.945Z,98714.38
2023-01-12T16:47:20.261Z,98708.05
2023-01-12T16:49:50.665Z,98705.05
2023-01-12T16:52:21.507Z,98703.14
2023-01-12T16:54:49.325Z,98701.98
2023-01-12T16:57:18.711Z,98698.77
2023-01-12T16:59:46.964Z,98699.99
2023-01-12T17:02:16.931Z,98697.56
2023-01-12T17:04:45.741Z,98698.89
2023-01-12T17:07:13.765Z,98704.59
2023-01-12T17:09:42.261Z,98692.43
2023-01-12T17:12:10.447Z,98689.23
2023-01-12T17:14:38.499Z,98681.63
2023-01-12T17:17:08.987Z,98679.45
2023-01-12T17:19:39.396Z,98678.85
2023-01-12T17:22:08.185Z,98676.69
2023-01-12T17:24:40.222Z,98678.08
2023-01-12T17:27:09.965Z,98673.54
2023-01-12T17:29:38.384Z,98674.75
2023-01-12T17:32:07.454Z,98674.71
2023-01-12T17:34:38.211Z,98676.43
2023-01-12T17:37:09.985Z,98673.67
2023-01-12T17:39:40.030Z,98675.48
2023-01-12T17:42:28.115Z,98673.02
2023-01-12T17:44:55.957Z,98673.44
2023-01-12T17:47:24.834Z,98675.13
2023-01-12T17:49:54.250Z,98672.52
2023-01-12T17:52:22.215Z,98667.51
2023-01-12T17:54:50.077Z,98669.74
2023-01-12T17:57:17.969Z,98669.67
2023-01-12T17:59:46.183Z,98666.27
2023-01-12T18:02:15.253Z,98665.55
2023-01-12T18:04:43.225Z,98665.65
2023-01-12T18:07:11.185Z,98664.05
2023-01-12T18:09:39.485Z,98664.73
2023-01-12T18:12:07.436Z,98667.94
2023-01-12T18:14:35.322Z,98664.35
2023-01-12T18:17:03.274Z,98662.85
2023-01-12T18:19:31.379Z,98659.44
2023-01-12T18:22:01.409Z,98657.27
2023-01-12T18:24:29.585Z,98653.89
2023-01-12T18:26:57.385Z,98650.35
2023-01-12T18:29:25.330Z,98651.19
2023-01-12T18:31:53.189Z,98655.16
2023-01-12T18:34:21.156Z,98656.88
2023-01-12T18:36:49.071Z,98659.45
2023-01-12T18:39:19.099Z,98654.54
2023-01-12T18:42:06.953Z,98659.73
2023-01-12T18:44:35.615Z,98658.24
2023-01-12T18:47:22.382Z,98648.02
2023-01-12T18:49:50.445Z,98643.95
2023-01-12T18:52:37.199Z,98647.27
2023-01-12T18:55:05.685Z,98637.61
2023-01-12T18:57:34.139Z,98638.86
2023-01-12T19:00:15.784Z,98639.16
2023-01-12T19:02:44.641Z,98638.73
2023-01-12T19:05:24.114Z,98644.32
2023-01-12T19:08:05.180Z,98641.66
2023-01-12T19:10:34.246Z,98646.22
2023-01-12T19:13:20.347Z,98640.42
2023-01-12T19:16:06.934Z,98639.69
2023-01-12T19:18:37.298Z,98639.36
2023-01-12T19:21:27.219Z,98642.86
2023-01-12T19:24:27.356Z,98640.88
2023-01-12T19:27:13.488Z,98636.80
2023-01-12T19:29:43.301Z,98642.59
2023-01-12T19:32:12.538Z,98639.92
2023-01-12T19:34:40.645Z,98637.51
2023-01-12T19:37:08.529Z,98639.64
2023-01-12T19:39:44.077Z,98634.39
2023-01-12T19:42:32.682Z,98632.23
2023-01-12T19:45:00.591Z,98628.36
2023-01-12T19:47:28.524Z,98630.77
2023-01-12T19:49:56.328Z,98629.66
2023-01-12T19:52:24.224Z,98628.95
2023-01-12T19:54:52.175Z,98625.65
2023-01-12T19:57:20.112Z,98627.27
2023-01-12T19:59:48.378Z,98622.32
2023-01-12T20:02:16.386Z,98621.57
2023-01-12T20:04:44.414Z,98618.20
2023-01-12T20:07:12.264Z,98616.20
2023-01-12T20:09:40.138Z,98617.49
2023-01-12T20:12:08.485Z,98613.69
2023-01-12T20:14:36.387Z,98617.25
2023-01-12T20:17:05.561Z,98613.77
2023-01-12T20:19:34.023Z,98615.27
2023-01-12T20:22:02.736Z,98617.65
2023-01-12T20:24:30.659Z,98619.87
2023-01-12T20:26:58.471Z,98622.06
2023-01-12T20:29:26.435Z,98622.67
2023-01-12T20:31:54.767Z,98622.31
2023-01-12T20:34:22.624Z,98622.02
2023-01-12T20:36:50.705Z,98622.84
2023-01-12T20:39:18.633Z,98620.27
2023-01-12T20:41:49.040Z,98621.38
2023-01-12T20:44:17.905Z,98621.39
2023-01-12T20:46:45.792Z,98622.79
2023-01-12T20:49:13.848Z,98620.44
2023-01-12T20:51:41.698Z,98622.23
2023-01-12T20:54:10.392Z,98622.20
2023-01-12T20:56:38.253Z,98622.75
2023-01-12T20:59:06.405Z,98616.80
2023-01-12T21:01:34.766Z,98613.64
2023-01-12T21:04:03.741Z,98614.00
2023-01-12T21:06:31.608Z,98616.77
2023-01-12T21:08:59.554Z,98616.20
2023-01-12T21:11:27.432Z,98618.95
2023-01-12T21:13:56.381Z,98616.73
2023-01-12T21:16:24.290Z,98618.10
2023-01-12T21:18:52.354Z,98616.77
2023-01-12T21:21:20.164Z,98617.15
2023-01-12T21:23:48.108Z,98618.89
2023-01-12T21:26:16.133Z,98613.87
2023-01-12T21:28:43.996Z,98607.90
2023-01-12T21:31:12.932Z,98607.88
2023-01-12T21:33:40.835Z,98611.72
2023-01-12T21:36:11.615Z,98606.98
2023-01-12T21:38:39.565Z,98605.02
2023-01-12T21:41:07.409Z,98605.35
2023-01-12T21:43:35.327Z,98607.30
2023-01-12T21:46:06.262Z,98609.56
2023-01-12T21:48:35.551Z,98605.42
2023-01-12T21:51:05.479Z,98603.91
2023-01-12T21:53:34.148Z,98599.39
2023-01-12T21:56:03.519Z,98597.13
2023-01-12T21:58:34.053Z,98601.95
2023-01-12T22:01:08.757Z,98599.55
2023-01-12T22:03:37.062Z,98595.27
2023-01-12T22:06:07.533Z,98594.34
2023-01-12T22:08:37.240Z,98591.57
2023-01-12T22:11:12.569Z,98594.05
2023-01-12T22:13:41.004Z,98595.13
2023-01-12T22:16:11.798Z,98587.36
2023-01-12T22:18:39.996Z,98584.42
2023-01-12T22:21:09.352Z,98589.02
2023-01-12T22:23:38.170Z,98589.84
2023-01-12T22:26:11.350Z,98585.59
2023-01-12T22:28:42.516Z,98584.16
2023-01-12T22:31:18.833Z,98581.95
2023-01-12T22:33:48.888Z,98584.11
2023-01-12T22:36:16.730Z,98589.05
2023-01-12T22:38:44.575Z,98581.33
2023-01-12T22:41:12.952Z,98578.48
2023-01-12T22:43:40.950Z,98577.23
2023-01-12T22:46:13.740Z,98576.84
2023-01-12T22:48:42.096Z,98573.14
2023-01-12T22:51:10.301Z,98569.40
2023-01-12T22:53:38.106Z,98567.94
2023-01-12T22:56:06.461Z,98568.75
2023-01-12T22:58:34.282Z,98574.87
2023-01-12T23:01:07.266Z,98578.50
2023-01-12T23:03:36.886Z,98581.06
2023-01-12T23:06:05.863Z,98575.08
2023-01-12T23:08:33.918Z,98574.54
2023-01-12T23:11:10.811Z,98574.86
2023-01-12T23:13:40.263Z,98576.38
2023-01-12T23:16:10.519Z,98570.91
2023-01-12T23:18:40.056Z,98572.67
2023-01-12T23:21:15.572Z,98573.67
2023-01-12T23:23:46.090Z,98576.71
2023-01-12T23:26:16.992Z,98577.64
2023-01-12T23:28:47.460Z,98582.33
2023-01-12T23:31:18.185Z,98584.85
2023-01-12T23:33:46.187Z,98584.27
2023-01-12T23:36:17.040Z,98582.48
2023-01-12T23:38:45.258Z,98578.46
2023-01-12T23:41:19.214Z,98573.20
2023-01-12T23:43:49.555Z,98574.23
2023-01-12T23:46:22.025Z,98570.88
2023-01-12T23:48:51.743Z,98565.90
2023-01-12T23:51:19.722Z,98564.98
2023-01-12T23:53:48.835Z,98563.67
2023-01-12T23:56:17.108Z,98565.36
2023-01-12T23:58:45.599Z,98564.44
